»·PEaware :: SE-IAM KSEZ-KGCN

SE-IAM :: KSEZ-KGCN

FLIGHT INFORMATION

Flight Status: Arrived
Operator: Privately registered:
Sweden
More flights under this callsign
Pilot: Gregory J. (18418)
Aircraft: PIPER PA-28 CHEROKEE ARCHER
(P28A)
More flights by this aircraft type
Origin: KSEZ Sedona
United States
Destination: KGCN Grand Canyon Natl Park
United States
More flights between these airports :: More routes between these airports
Route:
File this flight plan on PilotEdge
Remarks:
Altitude:
(Current/Filed)
10,500ft
Speed:
(Current/Filed)
110kts
Departed: 13-Mar-18 10:46 AM
Arrived: 13-Mar-18 11:32 AM
Distance/Time
Traveled:
69nm/0:46
Distance/Time
To Go:
Arrived

Flight Plot

Page will automatically refresh every two minutes.

Flight plan parsing failed; only flown route is shown


Map Options




Map Legend


Flown Route
Filed Route
Departure Airport
Arrival Airport
Navaid (VOR, NDB)
Fix

Horizontal Profiles

Position Reports

Time Latitude Longitude Heading Altitude Ground
Speed
13-Mar-18 10:33 34.849102 -111.789396 315 4833ft 0kts
13-Mar-18 10:34 34.849102 -111.789396 315 4833ft 0kts
13-Mar-18 10:35 34.849102 -111.789396 315 4833ft 0kts
13-Mar-18 10:36 34.849102 -111.789396 315 4833ft 0kts
13-Mar-18 10:37 34.849102 -111.789396 315 4833ft 0kts
13-Mar-18 10:38 34.849102 -111.789396 315 4833ft 0kts
13-Mar-18 10:39 34.849102 -111.789396 315 4833ft 0kts
13-Mar-18 10:40 34.849115 -111.789411 315 4833ft 0kts
13-Mar-18 10:41 34.849501 -111.788565 44 4833ft 6kts
13-Mar-18 10:42 34.850707 -111.787045 46 4833ft 5kts
13-Mar-18 10:43 34.852419 -111.784911 46 4833ft 10kts
13-Mar-18 10:44 34.852782 -111.784056 133 4833ft 0kts
13-Mar-18 10:45 34.850869 -111.785620 223 4833ft 49kts
13-Mar-18 10:46 34.839763 -111.804632 278 5480ft 83kts
13-Mar-18 10:47 34.857721 -111.817785 341 6339ft 87kts
13-Mar-18 10:48 34.880585 -111.825475 342 7235ft 84kts
13-Mar-18 10:49 34.903890 -111.833023 342 8046ft 87kts
13-Mar-18 10:50 34.927350 -111.840684 342 8832ft 88kts
13-Mar-18 10:51 34.951147 -111.848519 342 9588ft 89kts
13-Mar-18 10:52 34.975775 -111.856699 342 10298ft 92kts
13-Mar-18 10:53 35.000810 -111.865141 343 10556ft 97kts
13-Mar-18 10:54 35.027622 -111.874321 342 10631ft 102kts
13-Mar-18 10:55 35.055547 -111.883608 342 10628ft 103kts
13-Mar-18 10:56 35.083055 -111.892872 342 10622ft 101kts
13-Mar-18 10:57 35.109419 -111.902251 342 10610ft 100kts
13-Mar-18 10:58 35.136116 -111.911976 344 10591ft 101kts
13-Mar-18 10:59 35.163136 -111.921245 344 10574ft 101kts
13-Mar-18 11:00 35.189454 -111.930664 344 10593ft 97kts
13-Mar-18 11:01 35.215118 -111.941015 344 10585ft 97kts
13-Mar-18 11:02 35.240678 -111.950088 345 10595ft 96kts
13-Mar-18 11:03 35.266844 -111.956944 345 10583ft 97kts
13-Mar-18 11:04 35.293316 -111.963413 344 10568ft 96kts
13-Mar-18 11:05 35.319566 -111.970234 344 10561ft 96kts
13-Mar-18 11:06 35.345789 -111.977416 345 10538ft 96kts
13-Mar-18 11:07 35.371989 -111.984679 345 10526ft 97kts
13-Mar-18 11:08 35.398368 -111.992064 345 10506ft 97kts
13-Mar-18 11:09 35.424781 -111.999473 345 10487ft 97kts
13-Mar-18 11:10 35.451168 -112.007003 344 10491ft 99kts
13-Mar-18 11:11 35.481266 -112.015777 344 10517ft 115kts
13-Mar-18 11:12 35.512939 -112.025168 344 10423ft 116kts
13-Mar-18 11:13 35.542570 -112.033989 344 10488ft 106kts
13-Mar-18 11:14 35.571692 -112.042701 343 10467ft 106kts
13-Mar-18 11:15 35.600651 -112.051417 343 10437ft 107kts
13-Mar-18 11:16 35.629951 -112.059872 343 10458ft 111kts
13-Mar-18 11:17 35.660106 -112.068687 342 10419ft 108kts
13-Mar-18 11:18 35.688146 -112.077322 342 10196ft 103kts
13-Mar-18 11:19 35.716082 -112.086665 342 9738ft 105kts
13-Mar-18 11:20 35.744003 -112.096384 342 9276ft 104kts
13-Mar-18 11:21 35.769923 -112.105387 342 8760ft 103kts
13-Mar-18 11:22 35.797279 -112.115111 342 8220ft 102kts
13-Mar-18 11:23 35.825196 -112.124804 344 7949ft 107kts
13-Mar-18 11:24 35.854059 -112.128506 10 7908ft 104kts
13-Mar-18 11:25 35.879588 -112.120845 14 8012ft 94kts
13-Mar-18 11:26 35.905735 -112.114686 10 8058ft 97kts
13-Mar-18 11:27 35.930621 -112.103974 32 8127ft 96kts
13-Mar-18 11:28 35.951969 -112.090360 343 8151ft 84kts
13-Mar-18 11:29 35.968274 -112.107669 309 7701ft 75kts
13-Mar-18 11:30 35.970387 -112.128109 218 7218ft 62kts
13-Mar-18 11:31 35.957520 -112.141460 223 6607ft 25kts
13-Mar-18 11:32 35.956385 -112.141267 119 6607ft 0kts
13-Mar-18 11:33 35.956385 -112.141267 119 6607ft 0kts
13-Mar-18 11:34 35.956370 -112.141231 114 6607ft 1kts
13-Mar-18 11:35 35.957575 -112.139502 94 6607ft 6kts
13-Mar-18 11:36 35.957407 -112.139196 311 6607ft 0kts

Navigation Log

Ident Type
Flight plan parsing failed, navigation log unavailable